createdAt,value
2023-02-07T00:01:19.445Z,71.59
2023-02-07T00:03:46.820Z,71.63
2023-02-07T00:06:16.672Z,71.98
2023-02-07T00:08:44.255Z,72.32
2023-02-07T00:11:16.500Z,72.42
2023-02-07T00:13:44.913Z,72.55
2023-02-07T00:16:12.381Z,72.50
2023-02-07T00:18:40.744Z,72.76
2023-02-07T00:21:15.887Z,72.86
2023-02-07T00:23:43.501Z,73.01
2023-02-07T00:26:11.912Z,73.09
2023-02-07T00:28:39.757Z,73.20
2023-02-07T00:31:07.732Z,73.54
2023-02-07T00:33:39.396Z,73.48
2023-02-07T00:36:08.401Z,73.51
2023-02-07T00:38:35.154Z,73.54
2023-02-07T00:41:02.077Z,73.32
2023-02-07T00:43:32.625Z,73.27
2023-02-07T00:46:01.831Z,73.44
2023-02-07T00:48:29.838Z,73.41
2023-02-07T00:50:56.761Z,73.29
2023-02-07T00:53:24.331Z,73.19
2023-02-07T00:55:51.260Z,73.34
2023-02-07T00:58:18.003Z,73.31
2023-02-07T01:00:45.570Z,73.03
2023-02-07T01:03:12.312Z,73.06
2023-02-07T01:05:39.730Z,72.91
2023-02-07T01:08:06.758Z,72.91
2023-02-07T01:10:35.410Z,73.05
2023-02-07T01:13:02.130Z,72.70
2023-02-07T01:15:28.941Z,72.56
2023-02-07T01:17:55.731Z,72.50
2023-02-07T01:20:22.483Z,72.14
2023-02-07T01:22:49.138Z,72.03
2023-02-07T01:25:15.804Z,71.98
2023-02-07T01:27:42.491Z,71.89
2023-02-07T01:30:09.883Z,71.84
2023-02-07T01:32:36.545Z,71.85
2023-02-07T01:35:03.744Z,71.89
2023-02-07T01:37:32.394Z,72.08
2023-02-07T01:39:59.087Z,71.99
2023-02-07T01:42:27.802Z,72.13
2023-02-07T01:44:54.400Z,72.40
2023-02-07T01:47:23.614Z,72.49
2023-02-07T01:49:54.181Z,72.57
2023-02-07T01:52:25.998Z,72.46
2023-02-07T01:54:58.927Z,72.42
2023-02-07T01:57:26.127Z,72.30
2023-02-07T01:59:56.085Z,72.33
2023-02-07T02:02:24.755Z,72.05
2023-02-07T02:04:54.174Z,72.40
2023-02-07T02:07:21.742Z,72.20
2023-02-07T02:09:48.462Z,72.29
2023-02-07T02:12:18.627Z,71.88
2023-02-07T02:15:23.342Z,72.05
2023-02-07T02:17:59.408Z,71.94
2023-02-07T02:20:44.478Z,72.17
2023-02-07T02:23:30.245Z,72.03
2023-02-07T02:26:17.181Z,72.31
2023-02-07T02:29:04.263Z,72.13
2023-02-07T02:31:52.571Z,71.76
2023-02-07T02:34:43.573Z,71.93
2023-02-07T02:37:30.657Z,72.18
2023-02-07T02:40:30.933Z,72.15
2023-02-07T02:43:28.682Z,72.03
2023-02-07T02:46:04.871Z,72.28
2023-02-07T02:48:33.929Z,72.27
2023-02-07T02:51:01.019Z,72.12
2023-02-07T02:53:27.815Z,71.92
2023-02-07T02:56:15.807Z,72.28
2023-02-07T02:59:10.908Z,72.34
2023-02-07T03:01:49.809Z,72.11
2023-02-07T03:04:35.358Z,71.79
2023-02-07T03:07:08.684Z,71.97
2023-02-07T03:10:08.571Z,71.93
2023-02-07T03:12:48.463Z,71.67
2023-02-07T03:15:34.295Z,71.63
2023-02-07T03:18:08.819Z,72.08
2023-02-07T03:20:50.268Z,72.24
2023-02-07T03:23:20.171Z,72.13
2023-02-07T03:25:50.703Z,72.22
2023-02-07T03:28:21.775Z,71.97
2023-02-07T03:30:51.724Z,72.00
2023-02-07T03:33:20.037Z,71.79
2023-02-07T03:35:58.057Z,71.91
2023-02-07T03:38:25.070Z,71.80
2023-02-07T03:40:58.418Z,71.79
2023-02-07T03:43:29.126Z,72.05
2023-02-07T03:45:56.730Z,72.12
2023-02-07T03:48:23.780Z,72.04
2023-02-07T03:50:52.110Z,71.92
2023-02-07T03:53:20.372Z,71.90
2023-02-07T03:55:47.259Z,71.82
2023-02-07T03:58:14.140Z,71.89
2023-02-07T04:00:40.952Z,71.94
2023-02-07T04:03:07.763Z,72.29
2023-02-07T04:05:34.601Z,72.26
2023-02-07T04:08:01.568Z,72.17
2023-02-07T04:10:28.370Z,71.96
2023-02-07T04:12:55.056Z,71.91
2023-02-07T04:15:22.116Z,71.83
2023-02-07T04:17:48.799Z,71.85
2023-02-07T04:20:15.539Z,71.93
2023-02-07T04:22:42.237Z,71.75
2023-02-07T04:25:09.222Z,71.85
2023-02-07T04:27:35.914Z,71.46
2023-02-07T04:30:02.667Z,71.55
2023-02-07T04:32:29.426Z,72.16
2023-02-07T04:34:56.194Z,71.64
2023-02-07T04:37:22.946Z,71.76
2023-02-07T04:39:49.678Z,71.68
2023-02-07T04:42:16.445Z,71.64
2023-02-07T04:44:43.219Z,71.53
2023-02-07T04:47:09.895Z,71.50
2023-02-07T04:49:36.694Z,71.55
2023-02-07T04:52:03.461Z,71.44
2023-02-07T04:54:30.293Z,71.44
2023-02-07T04:56:57.171Z,71.01
2023-02-07T04:59:23.961Z,71.34
2023-02-07T05:01:50.751Z,71.08
2023-02-07T05:04:17.552Z,70.89
2023-02-07T05:06:44.409Z,70.67
2023-02-07T05:09:11.251Z,70.41
2023-02-07T05:11:37.972Z,70.72
2023-02-07T05:14:04.910Z,70.70
2023-02-07T05:16:31.740Z,70.68
2023-02-07T05:18:58.409Z,70.85
2023-02-07T05:21:25.207Z,71.16
2023-02-07T05:23:52.219Z,71.05
2023-02-07T05:26:19.147Z,70.95
2023-02-07T05:28:45.949Z,71.00
2023-02-07T05:31:12.883Z,71.01
2023-02-07T05:33:39.647Z,71.09
2023-02-07T05:36:07.240Z,71.08
2023-02-07T05:38:34.084Z,71.32
2023-02-07T05:41:01.248Z,71.61
2023-02-07T05:43:27.935Z,71.46
2023-02-07T05:45:54.888Z,71.35
2023-02-07T05:48:21.630Z,71.52
2023-02-07T05:50:48.527Z,71.28
2023-02-07T05:53:15.256Z,71.26
2023-02-07T05:55:41.930Z,71.23
2023-02-07T05:58:08.737Z,71.34
2023-02-07T06:00:35.449Z,71.58
2023-02-07T06:03:02.233Z,71.70
2023-02-07T06:05:32.097Z,71.68
2023-02-07T06:07:59.028Z,71.10
2023-02-07T06:10:25.747Z,71.23
2023-02-07T06:12:52.532Z,71.35
2023-02-07T06:15:19.373Z,71.33
2023-02-07T06:17:46.069Z,71.45
2023-02-07T06:20:13.129Z,71.41
2023-02-07T06:22:39.957Z,71.38
2023-02-07T06:25:11.831Z,71.36
2023-02-07T06:27:40.418Z,71.34
2023-02-07T06:30:09.046Z,71.37
2023-02-07T06:32:35.851Z,71.40
2023-02-07T06:35:02.800Z,71.46
2023-02-07T06:37:29.717Z,71.58
2023-02-07T06:39:56.508Z,71.74
2023-02-07T06:42:23.374Z,71.62
2023-02-07T06:44:50.109Z,71.24
2023-02-07T06:47:17.277Z,71.35
2023-02-07T06:49:43.984Z,71.39
2023-02-07T06:52:10.686Z,71.25
2023-02-07T06:54:37.738Z,71.29
2023-02-07T06:57:04.530Z,71.40
2023-02-07T06:59:31.611Z,71.34
2023-02-07T07:02:00.623Z,71.33
2023-02-07T07:04:27.824Z,71.23
2023-02-07T07:06:54.567Z,70.96
2023-02-07T07:09:21.302Z,71.22
2023-02-07T07:11:48.018Z,71.23
2023-02-07T07:14:14.734Z,71.19
2023-02-07T07:16:41.478Z,71.41
2023-02-07T07:19:08.326Z,71.40
2023-02-07T07:21:35.795Z,71.33
2023-02-07T07:24:02.479Z,71.37
2023-02-07T07:26:39.538Z,71.35
2023-02-07T07:29:13.646Z,71.28
2023-02-07T07:31:40.403Z,71.35
2023-02-07T07:34:07.171Z,71.38
2023-02-07T07:36:33.830Z,71.11
2023-02-07T07:39:03.597Z,71.51
2023-02-07T07:41:30.429Z,71.49
2023-02-07T07:43:57.106Z,71.53
2023-02-07T07:46:23.857Z,71.64
2023-02-07T07:48:50.752Z,71.63
2023-02-07T07:51:17.446Z,71.41
2023-02-07T07:53:45.197Z,71.49
2023-02-07T07:56:11.924Z,71.68
2023-02-07T07:58:38.662Z,71.06
2023-02-07T08:01:05.755Z,71.28
2023-02-07T08:03:32.506Z,71.64
2023-02-07T08:05:59.312Z,71.65
2023-02-07T08:08:26.145Z,71.90
2023-02-07T08:10:54.005Z,71.78
2023-02-07T08:13:20.768Z,71.93
2023-02-07T08:15:47.909Z,72.02
2023-02-07T08:18:14.672Z,71.93
2023-02-07T08:20:41.758Z,71.43
2023-02-07T08:23:08.488Z,70.98
2023-02-07T08:25:35.217Z,70.79
2023-02-07T08:28:04.356Z,70.75
2023-02-07T08:30:31.307Z,70.66
2023-02-07T08:32:58.142Z,70.75
2023-02-07T08:35:24.823Z,70.94
2023-02-07T08:37:51.496Z,71.49
2023-02-07T08:40:18.498Z,71.38
2023-02-07T08:42:45.597Z,71.58
2023-02-07T08:45:14.306Z,71.52
2023-02-07T08:47:40.969Z,71.71
2023-02-07T08:50:08.992Z,71.62
2023-02-07T08:52:35.646Z,71.38
2023-02-07T08:55:02.680Z,71.46
2023-02-07T08:57:29.361Z,71.08
2023-02-07T08:59:56.263Z,71.01
2023-02-07T09:02:23.432Z,71.04
2023-02-07T09:04:50.301Z,71.10
2023-02-07T09:07:17.052Z,71.02
2023-02-07T09:09:44.119Z,70.84
2023-02-07T09:12:11.970Z,70.82
2023-02-07T09:14:39.969Z,70.54
2023-02-07T09:17:08.098Z,70.38
2023-02-07T09:19:35.715Z,69.99
2023-02-07T09:22:03.693Z,69.99
2023-02-07T09:24:30.479Z,69.78
2023-02-07T09:26:57.170Z,69.54
2023-02-07T09:29:24.229Z,69.57
2023-02-07T09:31:51.474Z,69.40
2023-02-07T09:34:18.495Z,69.69
2023-02-07T09:36:45.340Z,69.58
2023-02-07T09:39:12.154Z,69.53
2023-02-07T09:41:56.028Z,68.73
2023-02-07T09:44:41.449Z,68.85
2023-02-07T09:47:14.807Z,68.30
2023-02-07T09:50:00.239Z,68.46
2023-02-07T09:52:36.035Z,68.22
2023-02-07T09:55:05.538Z,68.34
2023-02-07T09:57:41.580Z,68.05
2023-02-07T10:00:30.910Z,67.39
2023-02-07T10:03:14.468Z,67.62
2023-02-07T10:05:49.487Z,67.63
2023-02-07T10:08:17.784Z,67.25
2023-02-07T10:10:58.246Z,67.48
2023-02-07T10:13:55.542Z,67.23
2023-02-07T10:16:41.498Z,66.20
2023-02-07T10:19:26.209Z,66.64
2023-02-07T10:22:01.457Z,67.20
2023-02-07T10:24:52.063Z,67.37
2023-02-07T10:27:38.038Z,67.11
2023-02-07T10:30:17.181Z,66.98
2023-02-07T10:32:46.980Z,66.79
2023-02-07T10:35:28.527Z,66.47
2023-02-07T10:37:59.532Z,66.66
2023-02-07T10:40:40.966Z,66.61
2023-02-07T10:43:32.970Z,66.63
2023-02-07T10:46:06.400Z,66.78
2023-02-07T10:48:34.308Z,66.56
2023-02-07T10:51:03.571Z,66.75
2023-02-07T10:53:56.512Z,65.65
2023-02-07T10:56:26.688Z,66.28
2023-02-07T10:58:54.410Z,66.09
2023-02-07T11:01:24.171Z,66.22
2023-02-07T11:03:50.900Z,65.83
2023-02-07T11:06:26.695Z,65.49
2023-02-07T11:09:12.320Z,65.15
2023-02-07T11:11:40.831Z,65.28
2023-02-07T11:14:08.318Z,65.12
2023-02-07T11:16:35.379Z,65.02
2023-02-07T11:19:06.915Z,64.83
2023-02-07T11:21:33.494Z,64.88
2023-02-07T11:24:12.976Z,64.26
2023-02-07T11:27:05.358Z,64.30
2023-02-07T11:29:37.391Z,64.11
2023-02-07T11:32:04.510Z,63.84
2023-02-07T11:34:42.361Z,63.40
2023-02-07T11:37:23.110Z,63.18
2023-02-07T11:39:51.548Z,63.50
2023-02-07T11:42:31.895Z,63.10
2023-02-07T11:45:04.394Z,63.23
2023-02-07T11:47:32.119Z,62.98
2023-02-07T11:50:04.676Z,63.09
2023-02-07T11:52:33.254Z,62.95
2023-02-07T11:55:06.042Z,62.72
2023-02-07T11:57:33.811Z,62.78
2023-02-07T12:00:17.156Z,62.40
2023-02-07T12:02:52.005Z,61.76
2023-02-07T12:05:25.805Z,61.10
2023-02-07T12:08:00.801Z,61.10
2023-02-07T12:10:36.476Z,60.68
2023-02-07T12:13:21.890Z,60.15
2023-02-07T12:15:54.364Z,60.25
2023-02-07T12:18:24.179Z,60.43
2023-02-07T12:21:27.209Z,59.24
2023-02-07T12:24:01.518Z,59.69
2023-02-07T12:26:52.055Z,58.53
2023-02-07T12:29:37.492Z,59.32
2023-02-07T12:32:29.252Z,57.97
2023-02-07T12:35:06.322Z,58.60
2023-02-07T12:37:44.947Z,56.77
2023-02-07T12:40:20.178Z,56.91
2023-02-07T12:42:57.662Z,57.63
2023-02-07T12:45:51.671Z,56.42
2023-02-07T12:48:30.645Z,56.57
2023-02-07T12:51:30.312Z,56.79
2023-02-07T12:54:35.164Z,57.19
2023-02-07T12:57:10.481Z,57.05
2023-02-07T13:00:01.975Z,55.74
2023-02-07T13:02:37.844Z,56.32
2023-02-07T13:05:37.631Z,55.83
2023-02-07T13:08:21.936Z,56.64
2023-02-07T13:11:08.325Z,56.21
2023-02-07T13:13:59.545Z,55.75
2023-02-07T13:16:40.771Z,55.99
2023-02-07T13:19:25.421Z,56.45
2023-02-07T13:22:30.365Z,56.82
2023-02-07T13:24:57.954Z,56.36
2023-02-07T13:27:27.777Z,56.50
2023-02-07T13:29:55.218Z,55.91
2023-02-07T13:32:25.075Z,55.49
2023-02-07T13:35:03.162Z,55.69
2023-02-07T13:37:49.848Z,56.06
2023-02-07T13:40:41.653Z,55.49
2023-02-07T13:43:08.327Z,55.74
2023-02-07T13:45:47.666Z,54.40
2023-02-07T13:48:34.250Z,55.55
2023-02-07T13:51:27.502Z,55.52
2023-02-07T13:54:22.495Z,55.09
2023-02-07T13:57:19.642Z,54.78
2023-02-07T14:00:16.355Z,54.80
2023-02-07T14:02:50.620Z,55.45
2023-02-07T14:05:28.608Z,55.08
2023-02-07T14:08:00.012Z,54.85
2023-02-07T14:10:45.977Z,53.35
2023-02-07T14:13:34.711Z,53.62
2023-02-07T14:16:12.852Z,54.21
2023-02-07T14:18:52.339Z,53.88
2023-02-07T14:21:18.942Z,53.80
2023-02-07T14:23:57.668Z,52.12
2023-02-07T14:26:39.376Z,51.48
2023-02-07T14:29:22.779Z,50.69
2023-02-07T14:31:49.535Z,52.53
2023-02-07T14:34:20.934Z,51.90
2023-02-07T14:36:48.676Z,51.14
2023-02-07T14:39:18.040Z,51.37
2023-02-07T14:41:46.711Z,51.26
2023-02-07T14:44:36.568Z,50.40
2023-02-07T14:47:05.515Z,51.46
2023-02-07T14:49:38.623Z,51.86
2023-02-07T14:52:11.187Z,51.80
2023-02-07T14:54:40.917Z,51.72
2023-02-07T14:57:10.576Z,52.33
2023-02-07T15:00:04.968Z,51.72
2023-02-07T15:02:42.656Z,52.09
2023-02-07T15:05:26.330Z,52.38
2023-02-07T15:08:01.927Z,53.61
2023-02-07T15:10:32.863Z,54.07
2023-02-07T15:13:00.895Z,54.24
2023-02-07T15:15:50.299Z,54.32
2023-02-07T15:18:18.723Z,54.75
2023-02-07T15:20:51.246Z,55.07
2023-02-07T15:23:18.312Z,55.24
2023-02-07T15:25:45.789Z,55.34
2023-02-07T15:28:27.476Z,55.05
2023-02-07T15:31:02.148Z,54.80
2023-02-07T15:33:36.847Z,54.99
2023-02-07T15:36:24.649Z,55.12
2023-02-07T15:38:51.929Z,55.17
2023-02-07T15:41:18.750Z,55.22
2023-02-07T15:44:05.904Z,54.80
2023-02-07T15:46:56.970Z,54.16
2023-02-07T15:49:31.382Z,54.60
2023-02-07T15:52:00.971Z,54.78
2023-02-07T15:54:27.930Z,54.95
2023-02-07T15:57:00.527Z,54.46
2023-02-07T15:59:31.741Z,54.43
2023-02-07T16:02:01.194Z,54.90
2023-02-07T16:04:31.319Z,54.78
2023-02-07T16:07:07.010Z,54.38
2023-02-07T16:09:43.350Z,54.77
2023-02-07T16:12:45.795Z,54.59
2023-02-07T16:15:22.611Z,54.72
2023-02-07T16:17:49.280Z,55.15
2023-02-07T16:20:16.667Z,54.97
2023-02-07T16:22:45.828Z,55.09
2023-02-07T16:25:21.279Z,54.65
2023-02-07T16:27:50.724Z,54.92
2023-02-07T16:30:38.230Z,55.00
2023-02-07T16:33:07.135Z,54.85
2023-02-07T16:35:33.809Z,54.79
2023-02-07T16:38:00.472Z,54.86
2023-02-07T16:40:27.219Z,54.93
2023-02-07T16:42:55.432Z,54.84
2023-02-07T16:45:24.884Z,54.70
2023-02-07T16:47:51.953Z,55.01
2023-02-07T16:50:21.622Z,55.18
2023-02-07T16:52:49.777Z,55.05
2023-02-07T16:55:18.884Z,55.34
2023-02-07T16:57:47.719Z,55.48
2023-02-07T17:00:18.064Z,55.54
2023-02-07T17:02:48.583Z,55.92
2023-02-07T17:05:16.290Z,55.96
2023-02-07T17:07:43.260Z,56.01
2023-02-07T17:10:19.721Z,55.86
2023-02-07T17:12:46.580Z,56.20
2023-02-07T17:15:13.345Z,56.14
2023-02-07T17:17:40.114Z,56.05
2023-02-07T17:20:27.086Z,55.68
2023-02-07T17:22:54.366Z,56.12
2023-02-07T17:25:26.194Z,55.80
2023-02-07T17:27:53.015Z,55.73
2023-02-07T17:30:28.438Z,55.00
2023-02-07T17:32:56.266Z,55.56
2023-02-07T17:35:23.663Z,55.96
2023-02-07T17:37:50.448Z,55.85
2023-02-07T17:40:23.033Z,55.95
2023-02-07T17:42:50.280Z,55.95
2023-02-07T17:45:17.250Z,55.72
2023-02-07T17:47:44.508Z,56.37
2023-02-07T17:50:20.097Z,55.98
2023-02-07T17:52:46.936Z,56.22
2023-02-07T17:55:14.778Z,56.32
2023-02-07T17:57:42.334Z,56.24
2023-02-07T18:00:21.819Z,56.19
2023-02-07T18:02:48.730Z,56.43
2023-02-07T18:05:16.825Z,56.56
2023-02-07T18:07:44.959Z,56.57
2023-02-07T18:10:17.896Z,56.15
2023-02-07T18:12:44.711Z,56.10
2023-02-07T18:15:12.292Z,56.11
2023-02-07T18:17:39.428Z,56.22
2023-02-07T18:20:11.115Z,56.33
2023-02-07T18:22:38.363Z,56.61
2023-02-07T18:25:05.384Z,56.50
2023-02-07T18:27:32.419Z,56.51
2023-02-07T18:29:59.145Z,56.60
2023-02-07T18:32:25.962Z,56.84
2023-02-07T18:34:52.857Z,56.83
2023-02-07T18:37:21.249Z,56.87
2023-02-07T18:39:48.891Z,57.04
2023-02-07T18:42:17.635Z,56.99
2023-02-07T18:44:44.605Z,56.72
2023-02-07T18:47:11.339Z,56.54
2023-02-07T18:49:38.141Z,56.80
2023-02-07T18:52:04.993Z,56.88
2023-02-07T18:54:31.743Z,56.51
2023-02-07T18:56:58.523Z,56.51
2023-02-07T18:59:25.552Z,56.62
2023-02-07T19:01:53.722Z,56.49
2023-02-07T19:04:21.360Z,56.40
2023-02-07T19:06:49.858Z,56.42
2023-02-07T19:09:17.718Z,56.31
2023-02-07T19:11:45.011Z,56.18
2023-02-07T19:14:18.347Z,56.14
2023-02-07T19:16:46.116Z,56.35
2023-02-07T19:19:14.732Z,56.24
2023-02-07T19:21:41.718Z,56.24
2023-02-07T19:24:10.877Z,56.37
2023-02-07T19:26:38.956Z,56.72
2023-02-07T19:29:06.154Z,56.71
2023-02-07T19:31:33.303Z,56.60
2023-02-07T19:34:00.468Z,56.78
2023-02-07T19:36:27.958Z,56.84
2023-02-07T19:38:55.110Z,56.81
2023-02-07T19:41:24.168Z,56.29
2023-02-07T19:43:51.175Z,56.30
2023-02-07T19:46:19.157Z,56.01
2023-02-07T19:48:47.447Z,55.91
2023-02-07T19:51:22.107Z,55.98
2023-02-07T19:53:51.263Z,55.91
2023-02-07T19:56:19.509Z,56.09
2023-02-07T19:58:48.896Z,55.96
2023-02-07T20:01:16.527Z,55.91
2023-02-07T20:03:44.440Z,55.77
2023-02-07T20:06:13.927Z,55.89
2023-02-07T20:08:41.442Z,55.56
2023-02-07T20:11:12.560Z,55.70
2023-02-07T20:13:42.149Z,55.62
2023-02-07T20:16:12.575Z,55.78
2023-02-07T20:18:39.413Z,55.69
2023-02-07T20:21:11.677Z,55.51
2023-02-07T20:23:40.008Z,55.80
2023-02-07T20:26:08.981Z,55.97
2023-02-07T20:28:36.673Z,55.83
2023-02-07T20:31:08.672Z,55.57
2023-02-07T20:33:36.945Z,55.59
2023-02-07T20:36:04.929Z,55.86
2023-02-07T20:38:31.690Z,56.02
2023-02-07T20:41:07.249Z,55.51
2023-02-07T20:43:34.080Z,55.92
2023-02-07T20:46:12.717Z,55.99
2023-02-07T20:48:42.836Z,55.75
2023-02-07T20:51:11.145Z,55.95
2023-02-07T20:53:43.636Z,56.14
2023-02-07T20:56:18.894Z,55.75
2023-02-07T20:58:47.275Z,55.78
2023-02-07T21:01:20.601Z,56.04
2023-02-07T21:03:50.380Z,56.07
2023-02-07T21:06:18.035Z,56.02
2023-02-07T21:08:45.291Z,56.37
2023-02-07T21:11:12.751Z,56.33
2023-02-07T21:13:39.898Z,56.43
2023-02-07T21:16:08.032Z,56.44
2023-02-07T21:18:35.386Z,56.69
2023-02-07T21:21:07.024Z,56.61
2023-02-07T21:23:34.148Z,56.76
2023-02-07T21:26:09.567Z,56.65
2023-02-07T21:28:37.030Z,56.84
2023-02-07T21:31:05.582Z,56.97
2023-02-07T21:33:32.368Z,57.01
2023-02-07T21:36:05.223Z,56.78
2023-02-07T21:38:33.305Z,57.03
2023-02-07T21:41:00.598Z,56.87
2023-02-07T21:43:27.278Z,56.62
2023-02-07T21:45:55.066Z,56.91
2023-02-07T21:48:22.407Z,56.68
2023-02-07T21:50:49.169Z,56.80
2023-02-07T21:53:16.696Z,57.03
2023-02-07T21:55:43.367Z,57.04
2023-02-07T21:58:10.036Z,56.80
2023-02-07T22:00:36.743Z,57.21
2023-02-07T22:03:04.523Z,57.07
2023-02-07T22:05:33.109Z,57.20
2023-02-07T22:08:01.358Z,57.01
2023-02-07T22:10:28.199Z,57.05
2023-02-07T22:12:54.946Z,57.14
2023-02-07T22:15:21.714Z,57.26
2023-02-07T22:17:48.370Z,57.34
2023-02-07T22:20:15.805Z,57.18
2023-02-07T22:22:42.494Z,57.48
2023-02-07T22:25:09.183Z,57.38
2023-02-07T22:27:36.900Z,57.22
2023-02-07T22:30:04.045Z,57.24
2023-02-07T22:32:32.213Z,57.05
2023-02-07T22:35:16.557Z,56.83
2023-02-07T22:37:43.468Z,57.06
2023-02-07T22:40:10.651Z,57.24
2023-02-07T22:42:37.328Z,57.52
2023-02-07T22:45:04.354Z,57.35
2023-02-07T22:47:31.085Z,57.42
2023-02-07T22:49:57.719Z,57.63
2023-02-07T22:52:24.431Z,57.66
2023-02-07T22:54:51.305Z,57.68
2023-02-07T22:57:18.091Z,57.96
2023-02-07T22:59:44.907Z,57.87
2023-02-07T23:02:12.200Z,58.14
2023-02-07T23:04:39.689Z,58.32
2023-02-07T23:07:06.659Z,58.21
2023-02-07T23:09:33.729Z,58.21
2023-02-07T23:12:01.164Z,58.25
2023-02-07T23:14:27.997Z,58.31
2023-02-07T23:16:55.597Z,58.39
2023-02-07T23:19:22.512Z,58.57
2023-02-07T23:21:49.546Z,58.46
2023-02-07T23:24:16.602Z,58.36
2023-02-07T23:26:43.553Z,58.61
2023-02-07T23:29:10.528Z,58.75
2023-02-07T23:31:37.333Z,58.86
2023-02-07T23:34:04.180Z,58.86
2023-02-07T23:36:30.895Z,59.09
2023-02-07T23:38:57.549Z,59.18
2023-02-07T23:41:24.267Z,59.21
2023-02-07T23:43:50.987Z,59.28
2023-02-07T23:46:18.343Z,59.43
2023-02-07T23:48:45.856Z,59.31
2023-02-07T23:51:13.801Z,59.33
2023-02-07T23:53:49.256Z,59.60
2023-02-07T23:56:19.286Z,59.43
2023-02-07T23:58:47.744Z,59.40
